sensor_id;sensor_type;location;lat;lon;timestamp;pressure;altitude;pressure_sealevel;temperature;humidity
62655;BME280;48717;55.556;37.816;2023-04-10T00:00:34;100372.47;;;6.96;46.29
62655;BME280;48717;55.556;37.816;2023-04-10T00:03:02;100360.91;;;6.87;45.94
62655;BME280;48717;55.556;37.816;2023-04-10T00:05:30;100338.91;;;6.81;46.09
62655;BME280;48717;55.556;37.816;2023-04-10T00:07:57;100354.94;;;6.93;45.86
62655;BME280;48717;55.556;37.816;2023-04-10T00:10:24;100371.69;;;7.00;45.94
62655;BME280;48717;55.556;37.816;2023-04-10T00:12:52;100348.63;;;6.85;46.12
62655;BME280;48717;55.556;37.816;2023-04-10T00:15:19;100365.41;;;6.93;45.90
62655;BME280;48717;55.556;37.816;2023-04-10T00:17:46;100354.72;;;6.84;46.08
62655;BME280;48717;55.556;37.816;2023-04-10T00:20:16;100334.28;;;6.69;46.43
62655;BME280;48717;55.556;37.816;2023-04-10T00:22:43;100368.00;;;6.91;46.22
62655;BME280;48717;55.556;37.816;2023-04-10T00:25:10;100360.38;;;7.02;46.69
62655;BME280;48717;55.556;37.816;2023-04-10T00:27:54;100347.81;;;6.86;46.62
62655;BME280;48717;55.556;37.816;2023-04-10T00:30:21;100379.59;;;7.01;46.72
62655;BME280;48717;55.556;37.816;2023-04-10T00:32:48;100350.34;;;6.83;46.71
62655;BME280;48717;55.556;37.816;2023-04-10T00:35:16;100369.19;;;7.04;46.76
62655;BME280;48717;55.556;37.816;2023-04-10T00:37:43;100337.56;;;6.98;46.72
62655;BME280;48717;55.556;37.816;2023-04-10T00:40:10;100364.28;;;7.22;46.13
62655;BME280;48717;55.556;37.816;2023-04-10T00:42:38;100338.53;;;7.02;45.90
62655;BME280;48717;55.556;37.816;2023-04-10T00:45:05;100334.91;;;6.95;45.91
62655;BME280;48717;55.556;37.816;2023-04-10T00:47:33;100369.31;;;7.11;45.58
62655;BME280;48717;55.556;37.816;2023-04-10T00:50:00;100366.72;;;7.12;46.00
62655;BME280;48717;55.556;37.816;2023-04-10T00:52:29;100377.41;;;7.22;45.25
62655;BME280;48717;55.556;37.816;2023-04-10T00:54:56;100371.34;;;7.24;45.51
62655;BME280;48717;55.556;37.816;2023-04-10T00:57:23;100376.75;;;7.30;45.92
62655;BME280;48717;55.556;37.816;2023-04-10T00:59:52;100379.44;;;7.35;45.34
62655;BME280;48717;55.556;37.816;2023-04-10T01:02:19;100380.41;;;7.39;45.20
62655;BME280;48717;55.556;37.816;2023-04-10T01:04:49;100380.41;;;7.39;44.96
62655;BME280;48717;55.556;37.816;2023-04-10T01:13:24;100352.28;;;7.31;45.40
62655;BME280;48717;55.556;37.816;2023-04-10T01:16:10;100370.13;;;7.48;44.99
62655;BME280;48717;55.556;37.816;2023-04-10T01:19:06;100364.78;;;7.45;45.43
62655;BME280;48717;55.556;37.816;2023-04-10T01:21:41;100360.28;;;7.39;45.20
62655;BME280;48717;55.556;37.816;2023-04-10T01:29:51;100365.91;;;7.56;44.97
62655;BME280;48717;55.556;37.816;2023-04-10T01:32:21;100353.31;;;7.40;45.14
62655;BME280;48717;55.556;37.816;2023-04-10T01:34:53;100376.28;;;7.52;45.14
62655;BME280;48717;55.556;37.816;2023-04-10T01:37:29;100376.41;;;7.56;45.76
62655;BME280;48717;55.556;37.816;2023-04-10T01:40:02;100366.63;;;7.49;45.66
62655;BME280;48717;55.556;37.816;2023-04-10T01:42:31;100378.06;;;7.53;45.59
62655;BME280;48717;55.556;37.816;2023-04-10T01:44:59;100365.63;;;7.42;45.21
62655;BME280;48717;55.556;37.816;2023-04-10T01:47:29;100386.09;;;7.61;45.79
62655;BME280;48717;55.556;37.816;2023-04-10T01:49:56;100370.34;;;7.61;45.64
62655;BME280;48717;55.556;37.816;2023-04-10T01:52:24;100366.88;;;7.62;45.74
62655;BME280;48717;55.556;37.816;2023-04-10T01:55:07;100373.97;;;7.66;45.68
62655;BME280;48717;55.556;37.816;2023-04-10T01:57:42;100368.53;;;7.56;46.15
62655;BME280;48717;55.556;37.816;2023-04-10T02:00:10;100373.81;;;7.60;45.84
62655;BME280;48717;55.556;37.816;2023-04-10T02:02:41;100372.16;;;7.65;45.93
62655;BME280;48717;55.556;37.816;2023-04-10T02:05:09;100374.03;;;7.70;45.21
62655;BME280;48717;55.556;37.816;2023-04-10T02:12:59;100361.78;;;7.69;45.36
62655;BME280;48717;55.556;37.816;2023-04-10T02:15:30;100372.44;;;7.79;45.08
62655;BME280;48717;55.556;37.816;2023-04-10T02:17:59;100365.44;;;7.78;45.46
62655;BME280;48717;55.556;37.816;2023-04-10T02:20:30;100335.41;;;7.65;45.35
62655;BME280;48717;55.556;37.816;2023-04-10T02:22:59;100347.75;;;7.69;45.75
62655;BME280;48717;55.556;37.816;2023-04-10T02:25:33;100369.00;;;7.81;45.35
62655;BME280;48717;55.556;37.816;2023-04-10T02:28:04;100363.75;;;7.81;45.02
62655;BME280;48717;55.556;37.816;2023-04-10T02:30:31;100373.41;;;7.84;45.43
62655;BME280;48717;55.556;37.816;2023-04-10T02:33:01;100372.63;;;7.88;44.77
62655;BME280;48717;55.556;37.816;2023-04-10T02:35:30;100374.41;;;7.91;44.93
62655;BME280;48717;55.556;37.816;2023-04-10T02:37:57;100385.88;;;7.96;45.24
62655;BME280;48717;55.556;37.816;2023-04-10T02:40:24;100381.59;;;8.00;44.71
62655;BME280;48717;55.556;37.816;2023-04-10T02:43:06;100370.16;;;7.97;45.36
62655;BME280;48717;55.556;37.816;2023-04-10T02:45:33;100359.56;;;7.91;46.11
62655;BME280;48717;55.556;37.816;2023-04-10T02:48:01;100378.97;;;8.00;45.87
62655;BME280;48717;55.556;37.816;2023-04-10T02:50:28;100386.81;;;7.98;45.56
62655;BME280;48717;55.556;37.816;2023-04-10T02:52:58;100378.88;;;7.95;46.12
62655;BME280;48717;55.556;37.816;2023-04-10T02:55:25;100383.22;;;7.93;46.09
62655;BME280;48717;55.556;37.816;2023-04-10T02:57:53;100351.34;;;7.74;45.98
62655;BME280;48717;55.556;37.816;2023-04-10T03:00:20;100360.22;;;7.79;46.26
62655;BME280;48717;55.556;37.816;2023-04-10T03:03:04;100386.56;;;7.86;46.07
62655;BME280;48717;55.556;37.816;2023-04-10T03:05:40;100370.78;;;7.84;46.33
62655;BME280;48717;55.556;37.816;2023-04-10T03:08:07;100383.16;;;7.90;46.05
62655;BME280;48717;55.556;37.816;2023-04-10T03:10:35;100383.47;;;8.05;45.83
62655;BME280;48717;55.556;37.816;2023-04-10T03:13:02;100398.31;;;8.05;45.64
62655;BME280;48717;55.556;37.816;2023-04-10T03:15:29;100380.69;;;7.99;45.52
62655;BME280;48717;55.556;37.816;2023-04-10T03:17:57;100362.38;;;8.02;44.87
62655;BME280;48717;55.556;37.816;2023-04-10T03:20:24;100395.06;;;8.18;45.48
62655;BME280;48717;55.556;37.816;2023-04-10T03:22:51;100393.41;;;8.23;45.08
62655;BME280;48717;55.556;37.816;2023-04-10T03:25:19;100375.84;;;8.21;44.77
62655;BME280;48717;55.556;37.816;2023-04-10T03:27:46;100373.31;;;8.27;44.87
62655;BME280;48717;55.556;37.816;2023-04-10T03:30:13;100394.53;;;8.40;44.24
62655;BME280;48717;55.556;37.816;2023-04-10T03:32:41;100392.88;;;8.43;44.59
62655;BME280;48717;55.556;37.816;2023-04-10T03:35:09;100388.50;;;8.45;44.92
62655;BME280;48717;55.556;37.816;2023-04-10T03:37:36;100373.50;;;8.38;44.96
62655;BME280;48717;55.556;37.816;2023-04-10T03:40:07;100382.47;;;8.51;44.42
62655;BME280;48717;55.556;37.816;2023-04-10T03:42:35;100386.03;;;8.53;44.16
62655;BME280;48717;55.556;37.816;2023-04-10T03:45:03;100387.84;;;8.56;44.37
62655;BME280;48717;55.556;37.816;2023-04-10T03:47:30;100384.25;;;8.52;43.92
62655;BME280;48717;55.556;37.816;2023-04-10T03:49:59;100356.75;;;8.33;44.88
62655;BME280;48717;55.556;37.816;2023-04-10T03:52:32;100380.59;;;8.44;45.54
62655;BME280;48717;55.556;37.816;2023-04-10T03:54:59;100377.03;;;8.39;45.63
62655;BME280;48717;55.556;37.816;2023-04-10T03:57:28;100364.63;;;8.30;45.72
62655;BME280;48717;55.556;37.816;2023-04-10T04:00:02;100370.03;;;8.41;46.48
62655;BME280;48717;55.556;37.816;2023-04-10T04:02:47;100366.66;;;8.48;45.80
62655;BME280;48717;55.556;37.816;2023-04-10T04:05:37;100367.56;;;8.52;46.04
62655;BME280;48717;55.556;37.816;2023-04-10T04:08:30;100352.63;;;8.46;46.32
62655;BME280;48717;55.556;37.816;2023-04-10T04:11:06;100379.38;;;8.74;46.53
62655;BME280;48717;55.556;37.816;2023-04-10T04:14:00;100366.22;;;8.74;46.46
62655;BME280;48717;55.556;37.816;2023-04-10T04:16:45;100373.38;;;8.84;47.29
62655;BME280;48717;55.556;37.816;2023-04-10T04:19:28;100353.31;;;8.90;47.42
62655;BME280;48717;55.556;37.816;2023-04-10T04:22:28;100368.50;;;9.11;47.40
62655;BME280;48717;55.556;37.816;2023-04-10T04:25:25;100367.78;;;9.23;47.60
62655;BME280;48717;55.556;37.816;2023-04-10T04:27:52;100346.25;;;8.88;46.13
62655;BME280;48717;55.556;37.816;2023-04-10T04:30:31;100365.63;;;8.94;46.44
62655;BME280;48717;55.556;37.816;2023-04-10T04:33:17;100363.69;;;8.82;46.94
62655;BME280;48717;55.556;37.816;2023-04-10T04:35:56;100373.38;;;8.84;47.29
62655;BME280;48717;55.556;37.816;2023-04-10T04:38:41;100366.31;;;8.80;48.16
62655;BME280;48717;55.556;37.816;2023-04-10T04:41:08;100370.75;;;8.84;48.54
62655;BME280;48717;55.556;37.816;2023-04-10T04:44:03;100333.97;;;8.87;49.05
62655;BME280;48717;55.556;37.816;2023-04-10T04:46:53;100359.13;;;9.30;48.57
62655;BME280;48717;55.556;37.816;2023-04-10T04:49:39;100347.81;;;9.39;48.29
62655;BME280;48717;55.556;37.816;2023-04-10T04:52:29;100356.13;;;9.78;47.79
62655;BME280;48717;55.556;37.816;2023-04-10T04:55:14;100361.81;;;10.15;46.52
62655;BME280;48717;55.556;37.816;2023-04-10T04:58:00;100348.03;;;10.48;45.52
62655;BME280;48717;55.556;37.816;2023-04-10T05:01:00;100357.25;;;11.09;43.68
62655;BME280;48717;55.556;37.816;2023-04-10T05:03:50;100373.41;;;11.87;42.09
62655;BME280;48717;55.556;37.816;2023-04-10T05:06:40;100352.34;;;12.56;41.09
62655;BME280;48717;55.556;37.816;2023-04-10T05:09:37;100361.16;;;12.89;40.50
62655;BME280;48717;55.556;37.816;2023-04-10T05:12:29;100361.06;;;13.17;40.09
62655;BME280;48717;55.556;37.816;2023-04-10T05:15:06;100340.66;;;13.52;39.50
62655;BME280;48717;55.556;37.816;2023-04-10T05:17:49;100357.31;;;13.76;38.62
62655;BME280;48717;55.556;37.816;2023-04-10T05:20:42;100355.53;;;13.79;38.89
62655;BME280;48717;55.556;37.816;2023-04-10T05:23:42;100359.06;;;13.80;39.43
62655;BME280;48717;55.556;37.816;2023-04-10T05:26:36;100359.81;;;13.99;37.98
62655;BME280;48717;55.556;37.816;2023-04-10T05:29:25;100359.38;;;14.58;36.88
62655;BME280;48717;55.556;37.816;2023-04-10T05:32:17;100363.28;;;15.16;36.23
62655;BME280;48717;55.556;37.816;2023-04-10T05:35:04;100360.19;;;15.51;36.07
62655;BME280;48717;55.556;37.816;2023-04-10T05:37:57;100373.13;;;15.78;35.08
62655;BME280;48717;55.556;37.816;2023-04-10T05:40:39;100365.34;;;15.62;34.46
62655;BME280;48717;55.556;37.816;2023-04-10T05:43:34;100368.09;;;15.56;35.17
62655;BME280;48717;55.556;37.816;2023-04-10T05:46:31;100369.84;;;15.57;34.21
62655;BME280;48717;55.556;37.816;2023-04-10T05:49:21;100370.56;;;15.70;33.32
62655;BME280;48717;55.556;37.816;2023-04-10T05:52:02;100373.06;;;15.81;33.73
62655;BME280;48717;55.556;37.816;2023-04-10T05:54:44;100376.75;;;15.74;33.15
62655;BME280;48717;55.556;37.816;2023-04-10T05:57:30;100379.81;;;15.41;33.56
62655;BME280;48717;55.556;37.816;2023-04-10T06:00:18;100379.34;;;15.03;34.20
62655;BME280;48717;55.556;37.816;2023-04-10T06:03:04;100367.28;;;14.65;34.03
62655;BME280;48717;55.556;37.816;2023-04-10T06:05:33;100384.41;;;14.23;35.35
62655;BME280;48717;55.556;37.816;2023-04-10T06:08:04;100365.28;;;13.76;36.00
62655;BME280;48717;55.556;37.816;2023-04-10T06:10:31;100361.72;;;13.78;36.68
62655;BME280;48717;55.556;37.816;2023-04-10T06:12:58;100376.66;;;13.92;36.04
62655;BME280;48717;55.556;37.816;2023-04-10T06:15:25;100392.41;;;14.20;35.62
62655;BME280;48717;55.556;37.816;2023-04-10T06:17:52;100374.66;;;14.28;35.91
62655;BME280;48717;55.556;37.816;2023-04-10T06:20:20;100379.81;;;14.47;35.06
62655;BME280;48717;55.556;37.816;2023-04-10T06:22:49;100387.69;;;14.59;34.65
62655;BME280;48717;55.556;37.816;2023-04-10T06:25:16;100377.84;;;14.71;34.17
62655;BME280;48717;55.556;37.816;2023-04-10T06:27:43;100386.63;;;14.82;34.38
62655;BME280;48717;55.556;37.816;2023-04-10T06:30:10;100384.88;;;14.81;34.45
62655;BME280;48717;55.556;37.816;2023-04-10T06:32:37;100378.66;;;14.79;33.95
62655;BME280;48717;55.556;37.816;2023-04-10T06:35:06;100376.91;;;14.78;34.24
62655;BME280;48717;55.556;37.816;2023-04-10T06:37:33;100354.31;;;14.29;34.36
62655;BME280;48717;55.556;37.816;2023-04-10T06:40:13;100387.91;;;14.30;35.65
62655;BME280;48717;55.556;37.816;2023-04-10T06:42:40;100383.53;;;14.24;35.29
62655;BME280;48717;55.556;37.816;2023-04-10T06:45:27;100353.53;;;14.16;35.34
62655;BME280;48717;55.556;37.816;2023-04-10T06:47:55;100385.13;;;14.47;35.69
62655;BME280;48717;55.556;37.816;2023-04-10T06:50:22;100387.59;;;14.67;34.68
62655;BME280;48717;55.556;37.816;2023-04-10T06:52:49;100384.88;;;14.78;34.54
62655;BME280;48717;55.556;37.816;2023-04-10T06:55:16;100395.47;;;14.84;35.13
62655;BME280;48717;55.556;37.816;2023-04-10T06:57:43;100397.03;;;15.03;35.39
62655;BME280;48717;55.556;37.816;2023-04-10T07:00:11;100396.06;;;15.13;34.73
62655;BME280;48717;55.556;37.816;2023-04-10T07:02:39;100356.41;;;14.93;34.84
62655;BME280;48717;55.556;37.816;2023-04-10T07:05:07;100385.50;;;15.05;34.58
62655;BME280;48717;55.556;37.816;2023-04-10T07:07:35;100398.84;;;15.02;34.43
62655;BME280;48717;55.556;37.816;2023-04-10T07:10:02;100395.28;;;15.00;34.26
62655;BME280;48717;55.556;37.816;2023-04-10T07:12:29;100381.19;;;14.93;34.40
62655;BME280;48717;55.556;37.816;2023-04-10T07:14:57;100401.41;;;15.08;34.82
62655;BME280;48717;55.556;37.816;2023-04-10T07:17:24;100397.03;;;15.01;34.67
62655;BME280;48717;55.556;37.816;2023-04-10T07:19:51;100390.47;;;14.42;35.48
62655;BME280;48717;55.556;37.816;2023-04-10T07:22:18;100405.34;;;14.64;36.14
62655;BME280;48717;55.556;37.816;2023-04-10T07:37:26;100399.19;;;16.18;32.20
62655;BME280;48717;55.556;37.816;2023-04-10T07:39:53;100388.22;;;16.40;33.65
62655;BME280;48717;55.556;37.816;2023-04-10T07:42:20;100398.41;;;16.68;31.81
62655;BME280;48717;55.556;37.816;2023-04-10T07:44:48;100377.75;;;16.81;31.59
62655;BME280;48717;55.556;37.816;2023-04-10T07:47:15;100408.53;;;16.96;31.76
62655;BME280;48717;55.556;37.816;2023-04-10T07:49:43;100406.22;;;16.78;31.89
62655;BME280;48717;55.556;37.816;2023-04-10T07:52:10;100386.94;;;16.65;32.72
62655;BME280;48717;55.556;37.816;2023-04-10T07:54:37;100377.00;;;16.18;34.12
62655;BME280;48717;55.556;37.816;2023-04-10T07:57:04;100395.63;;;15.52;35.33
62655;BME280;48717;55.556;37.816;2023-04-10T07:59:32;100402.88;;;15.37;35.82
62655;BME280;48717;55.556;37.816;2023-04-10T08:01:59;100384.03;;;14.78;38.08
62655;BME280;48717;55.556;37.816;2023-04-10T08:04:26;100404.59;;;14.43;38.67
62655;BME280;48717;55.556;37.816;2023-04-10T08:06:53;100403.22;;;13.79;39.40
62655;BME280;48717;55.556;37.816;2023-04-10T08:09:20;100364.59;;;13.13;40.69
62655;BME280;48717;55.556;37.816;2023-04-10T08:11:47;100395.47;;;13.29;40.11
62655;BME280;48717;55.556;37.816;2023-04-10T08:14:14;100403.44;;;13.14;40.40
62655;BME280;48717;55.556;37.816;2023-04-10T08:16:44;100414.03;;;13.14;40.81
62655;BME280;48717;55.556;37.816;2023-04-10T08:19:11;100409.63;;;12.97;40.89
62655;BME280;48717;55.556;37.816;2023-04-10T08:21:38;100387.59;;;12.72;40.97
62655;BME280;48717;55.556;37.816;2023-04-10T08:24:05;100407.00;;;12.78;41.33
62655;BME280;48717;55.556;37.816;2023-04-10T08:26:32;100414.06;;;12.79;41.47
62655;BME280;48717;55.556;37.816;2023-04-10T08:29:00;100408.78;;;12.55;41.61
62655;BME280;48717;55.556;37.816;2023-04-10T08:31:28;100409.66;;;12.74;41.01
62655;BME280;48717;55.556;37.816;2023-04-10T08:33:55;100407.00;;;12.89;40.80
62655;BME280;48717;55.556;37.816;2023-04-10T08:36:24;100392.88;;;13.08;39.96
62655;BME280;48717;55.556;37.816;2023-04-10T08:38:53;100402.56;;;13.13;39.08
62655;BME280;48717;55.556;37.816;2023-04-10T08:41:20;100376.06;;;13.18;38.68
62655;BME280;48717;55.556;37.816;2023-04-10T08:43:47;100352.13;;;13.55;37.74
62655;BME280;48717;55.556;37.816;2023-04-10T08:46:15;100395.13;;;14.09;36.56
62655;BME280;48717;55.556;37.816;2023-04-10T08:48:46;100386.22;;;14.18;35.93
62655;BME280;48717;55.556;37.816;2023-04-10T08:51:19;100390.72;;;14.03;35.56
62655;BME280;48717;55.556;37.816;2023-04-10T08:53:57;100390.81;;;13.88;36.28
62655;BME280;48717;55.556;37.816;2023-04-10T08:56:24;100382.13;;;13.54;36.35
62655;BME280;48717;55.556;37.816;2023-04-10T08:58:52;100383.00;;;13.64;36.55
62655;BME280;48717;55.556;37.816;2023-04-10T09:01:20;100387.34;;;13.73;36.32
62655;BME280;48717;55.556;37.816;2023-04-10T09:03:47;100383.78;;;13.80;36.05
62655;BME280;48717;55.556;37.816;2023-04-10T09:06:14;100386.44;;;13.80;36.02
62655;BME280;48717;55.556;37.816;2023-04-10T09:08:41;100377.56;;;13.86;35.88
62655;BME280;48717;55.556;37.816;2023-04-10T09:11:09;100375.56;;;14.22;35.55
62655;BME280;48717;55.556;37.816;2023-04-10T09:13:40;100364.13;;;14.16;36.05
62655;BME280;48717;55.556;37.816;2023-04-10T09:16:09;100390.50;;;14.34;35.08
62655;BME280;48717;55.556;37.816;2023-04-10T09:21:08;100380.47;;;14.79;34.61
62655;BME280;48717;55.556;37.816;2023-04-10T09:23:36;100373.31;;;14.85;34.38
62655;BME280;48717;55.556;37.816;2023-04-10T09:26:22;100374.03;;;15.03;34.74
62655;BME280;48717;55.556;37.816;2023-04-10T09:29:01;100372.41;;;14.90;34.58
62655;BME280;48717;55.556;37.816;2023-04-10T09:31:31;100378.53;;;14.95;33.78
62655;BME280;48717;55.556;37.816;2023-04-10T09:36:34;100347.56;;;14.94;34.02
62655;BME280;48717;55.556;37.816;2023-04-10T09:39:04;100369.75;;;14.88;34.46
62655;BME280;48717;55.556;37.816;2023-04-10T09:41:31;100368.06;;;14.79;34.53
62655;BME280;48717;55.556;37.816;2023-04-10T09:44:26;100369.84;;;14.75;35.03
62655;BME280;48717;55.556;37.816;2023-04-10T09:46:54;100332.63;;;14.82;33.81
62655;BME280;48717;55.556;37.816;2023-04-10T09:49:21;100369.31;;;15.29;34.59
62655;BME280;48717;55.556;37.816;2023-04-10T09:51:49;100359.88;;;15.01;34.81
62655;BME280;48717;55.556;37.816;2023-04-10T09:54:16;100358.13;;;15.00;34.91
62655;BME280;48717;55.556;37.816;2023-04-10T09:56:44;100369.75;;;14.90;34.65
62655;BME280;48717;55.556;37.816;2023-04-10T09:59:13;100359.94;;;14.98;34.34
62655;BME280;48717;55.556;37.816;2023-04-10T10:01:40;100361.56;;;15.11;34.00
62655;BME280;48717;55.556;37.816;2023-04-10T10:04:08;100355.25;;;15.19;33.85
62655;BME280;48717;55.556;37.816;2023-04-10T10:06:37;100349.78;;;15.34;33.56
62655;BME280;48717;55.556;37.816;2023-04-10T10:09:04;100361.06;;;15.52;33.41
62655;BME280;48717;55.556;37.816;2023-04-10T10:11:33;100352.97;;;15.61;33.18
62655;BME280;48717;55.556;37.816;2023-04-10T10:14:14;100349.97;;;15.86;32.88
62655;BME280;48717;55.556;37.816;2023-04-10T10:16:46;100362.25;;;15.98;33.01
62655;BME280;48717;55.556;37.816;2023-04-10T10:19:20;100360.53;;;15.91;32.21
62655;BME280;48717;55.556;37.816;2023-04-10T10:21:48;100358.38;;;16.20;31.88
62655;BME280;48717;55.556;37.816;2023-04-10T10:24:18;100351.72;;;16.98;30.63
62655;BME280;48717;55.556;37.816;2023-04-10T10:26:46;100338.00;;;17.62;29.63
62655;BME280;48717;55.556;37.816;2023-04-10T10:29:14;100349.16;;;17.81;29.20
62655;BME280;48717;55.556;37.816;2023-04-10T10:31:43;100341.53;;;18.04;29.32
62655;BME280;48717;55.556;37.816;2023-04-10T10:34:11;100331.38;;;18.21;28.73
62655;BME280;48717;55.556;37.816;2023-04-10T10:36:40;100314.25;;;18.29;28.52
62655;BME280;48717;55.556;37.816;2023-04-10T10:41:47;100326.00;;;17.42;29.40
62655;BME280;48717;55.556;37.816;2023-04-10T10:44:25;100324.38;;;17.35;29.43
62655;BME280;48717;55.556;37.816;2023-04-10T10:47:06;100336.22;;;17.20;30.18
62655;BME280;48717;55.556;37.816;2023-04-10T10:49:57;100320.00;;;17.73;29.24
62655;BME280;48717;55.556;37.816;2023-04-10T10:58:07;100319.06;;;19.17;27.54
62655;BME280;48717;55.556;37.816;2023-04-10T11:08:38;100314.75;;;19.73;25.98
62655;BME280;48717;55.556;37.816;2023-04-10T11:13:42;100313.28;;;18.33;27.69
62655;BME280;48717;55.556;37.816;2023-04-10T11:19:03;100313.75;;;18.14;28.29
62655;BME280;48717;55.556;37.816;2023-04-10T11:22:12;100301.28;;;18.83;26.89
62655;BME280;48717;55.556;37.816;2023-04-10T11:24:58;100293.03;;;19.82;25.91
62655;BME280;48717;55.556;37.816;2023-04-10T11:27:43;100296.19;;;21.26;24.02
62655;BME280;48717;55.556;37.816;2023-04-10T11:30:31;100296.47;;;21.66;23.12
62655;BME280;48717;55.556;37.816;2023-04-10T11:33:00;100298.66;;;22.66;21.48
62655;BME280;48717;55.556;37.816;2023-04-10T11:35:29;100284.56;;;23.01;21.18
62655;BME280;48717;55.556;37.816;2023-04-10T11:38:08;100281.53;;;23.86;20.26
62655;BME280;48717;55.556;37.816;2023-04-10T11:40:35;100278.81;;;24.94;19.36
62655;BME280;48717;55.556;37.816;2023-04-10T11:43:14;100280.72;;;23.07;19.78
62655;BME280;48717;55.556;37.816;2023-04-10T11:45:41;100286.59;;;22.96;20.57
62655;BME280;48717;55.556;37.816;2023-04-10T11:48:08;100284.50;;;23.03;19.80
62655;BME280;48717;55.556;37.816;2023-04-10T11:50:35;100283.91;;;22.75;20.47
62655;BME280;48717;55.556;37.816;2023-04-10T11:53:16;100283.22;;;22.28;21.01
62655;BME280;48717;55.556;37.816;2023-04-10T11:55:44;100275.84;;;22.11;21.26
62655;BME280;48717;55.556;37.816;2023-04-10T11:58:25;100264.78;;;21.06;22.07
62655;BME280;48717;55.556;37.816;2023-04-10T12:01:03;100276.97;;;21.15;22.89
62655;BME280;48717;55.556;37.816;2023-04-10T12:03:38;100275.84;;;20.71;22.91
62655;BME280;48717;55.556;37.816;2023-04-10T12:06:10;100273.88;;;19.96;23.84
62655;BME280;48717;55.556;37.816;2023-04-10T12:08:40;100274.44;;;21.10;22.97
62655;BME280;48717;55.556;37.816;2023-04-10T12:11:09;100276.09;;;21.60;22.26
62655;BME280;48717;55.556;37.816;2023-04-10T12:13:37;100267.28;;;22.24;21.75
62655;BME280;48717;55.556;37.816;2023-04-10T12:16:08;100272.88;;;23.21;20.96
62655;BME280;48717;55.556;37.816;2023-04-10T12:18:36;100257.00;;;22.13;21.56
62655;BME280;48717;55.556;37.816;2023-04-10T12:21:04;100257.91;;;21.69;22.21
62655;BME280;48717;55.556;37.816;2023-04-10T12:23:36;100262.47;;;21.43;22.52
62655;BME280;48717;55.556;37.816;2023-04-10T12:28:36;100255.84;;;22.41;21.55
62655;BME280;48717;55.556;37.816;2023-04-10T12:31:04;100257.91;;;22.76;21.32
62655;BME280;48717;55.556;37.816;2023-04-10T12:33:31;100244.88;;;22.46;21.20
62655;BME280;48717;55.556;37.816;2023-04-10T12:35:59;100265.94;;;21.69;22.23
62655;BME280;48717;55.556;37.816;2023-04-10T12:38:42;100258.22;;;21.37;22.92
62655;BME280;48717;55.556;37.816;2023-04-10T12:41:11;100252.97;;;21.34;22.80
62655;BME280;48717;55.556;37.816;2023-04-10T12:43:40;100242.50;;;21.28;23.02
62655;BME280;48717;55.556;37.816;2023-04-10T12:46:08;100255.16;;;21.00;24.01
62655;BME280;48717;55.556;37.816;2023-04-10T12:48:36;100252.44;;;20.76;23.87
62655;BME280;48717;55.556;37.816;2023-04-10T12:51:03;100256.72;;;20.29;24.69
62655;BME280;48717;55.556;37.816;2023-04-10T12:53:30;100246.25;;;19.67;25.00
62655;BME280;48717;55.556;37.816;2023-04-10T12:56:04;100248.13;;;19.37;25.31
62655;BME280;48717;55.556;37.816;2023-04-10T12:58:32;100234.63;;;19.10;25.37
62655;BME280;48717;55.556;37.816;2023-04-10T13:01:05;100240.69;;;18.85;25.94
62655;BME280;48717;55.556;37.816;2023-04-10T13:03:33;100245.06;;;18.54;26.97
62655;BME280;48717;55.556;37.816;2023-04-10T13:06:01;100252.66;;;18.00;28.63
62655;BME280;48717;55.556;37.816;2023-04-10T13:08:28;100245.75;;;17.55;30.26
62655;BME280;48717;55.556;37.816;2023-04-10T13:11:01;100243.19;;;16.63;32.74
62655;BME280;48717;55.556;37.816;2023-04-10T13:13:31;100267.34;;;16.00;34.02
62655;BME280;48717;55.556;37.816;2023-04-10T13:15:58;100269.91;;;15.45;35.54
62655;BME280;48717;55.556;37.816;2023-04-10T13:18:26;100252.78;;;15.02;36.56
62655;BME280;48717;55.556;37.816;2023-04-10T13:20:53;100261.03;;;14.77;37.56
62655;BME280;48717;55.556;37.816;2023-04-10T13:23:20;100257.47;;;14.75;37.08
62655;BME280;48717;55.556;37.816;2023-04-10T13:25:47;100263.66;;;14.80;37.97
62655;BME280;48717;55.556;37.816;2023-04-10T13:28:14;100273.13;;;15.03;37.44
62655;BME280;48717;55.556;37.816;2023-04-10T13:30:41;100248.44;;;14.95;37.64
62655;BME280;48717;55.556;37.816;2023-04-10T13:33:10;100281.22;;;14.91;38.97
62655;BME280;48717;55.556;37.816;2023-04-10T13:35:40;100280.38;;;14.88;38.62
62655;BME280;48717;55.556;37.816;2023-04-10T13:38:07;100275.19;;;14.76;39.57
62655;BME280;48717;55.556;37.816;2023-04-10T13:40:35;100281.53;;;14.59;40.55
62655;BME280;48717;55.556;37.816;2023-04-10T13:43:02;100275.56;;;14.35;41.22
62655;BME280;48717;55.556;37.816;2023-04-10T13:45:30;100274.88;;;14.15;41.42
62655;BME280;48717;55.556;37.816;2023-04-10T13:47:57;100260.88;;;13.97;40.96
62655;BME280;48717;55.556;37.816;2023-04-10T13:50:24;100249.66;;;13.57;42.35
62655;BME280;48717;55.556;37.816;2023-04-10T13:52:51;100271.88;;;13.27;43.59
62655;BME280;48717;55.556;37.816;2023-04-10T13:55:19;100272.78;;;13.19;43.54
62655;BME280;48717;55.556;37.816;2023-04-10T13:57:46;100271.09;;;13.01;43.96
62655;BME280;48717;55.556;37.816;2023-04-10T14:00:13;100278.25;;;12.81;44.64
62655;BME280;48717;55.556;37.816;2023-04-10T14:02:41;100265.91;;;12.58;45.10
62655;BME280;48717;55.556;37.816;2023-04-10T14:05:08;100260.66;;;12.55;45.70
62655;BME280;48717;55.556;37.816;2023-04-10T14:07:36;100276.50;;;12.61;46.03